createdAt,value
2023-02-24T00:01:49.621Z,5.30
2023-02-24T00:04:17.516Z,4.95
2023-02-24T00:06:45.636Z,4.90
2023-02-24T00:09:15.716Z,5.97
2023-02-24T00:11:45.107Z,5.00
2023-02-24T00:14:15.942Z,5.22
2023-02-24T00:16:45.308Z,4.53
2023-02-24T00:19:16.672Z,5.75
2023-02-24T00:21:45.012Z,5.15
2023-02-24T00:24:14.353Z,4.90
2023-02-24T00:26:42.840Z,4.88
2023-02-24T00:29:13.692Z,4.70
2023-02-24T00:31:43.439Z,4.47
2023-02-24T00:34:13.370Z,4.80
2023-02-24T00:36:42.737Z,6.43
2023-02-24T00:39:12.704Z,6.97
2023-02-24T00:41:43.517Z,6.88
2023-02-24T00:44:16.076Z,7.43
2023-02-24T00:46:45.960Z,6.65
2023-02-24T00:49:17.334Z,6.80
2023-02-24T00:51:49.092Z,4.60
2023-02-24T00:54:17.701Z,4.97
2023-02-24T00:56:47.556Z,5.43
2023-02-24T00:59:16.881Z,6.20
2023-02-24T01:01:45.179Z,5.32
2023-02-24T01:04:14.318Z,4.80
2023-02-24T01:06:45.090Z,5.00
2023-02-24T01:09:16.082Z,4.82
2023-02-24T01:12:23.052Z,5.28
2023-02-24T01:14:53.022Z,4.90
2023-02-24T01:17:22.001Z,3.92
2023-02-24T01:19:50.310Z,4.30
2023-02-24T01:22:19.747Z,4.55
2023-02-24T01:24:49.755Z,3.92
2023-02-24T01:27:21.377Z,5.00
2023-02-24T01:29:49.791Z,3.85
2023-02-24T01:32:20.247Z,4.40
2023-02-24T01:34:48.284Z,4.20
2023-02-24T01:37:16.895Z,4.55
2023-02-24T01:39:45.252Z,4.20
2023-02-24T01:42:19.389Z,4.47
2023-02-24T01:45:16.219Z,4.20
2023-02-24T01:47:47.300Z,3.85
2023-02-24T01:50:17.667Z,3.55
2023-02-24T01:52:47.588Z,3.42
2023-02-24T01:55:20.201Z,3.15
2023-02-24T01:57:50.236Z,3.17
2023-02-24T02:00:33.696Z,3.20
2023-02-24T02:03:04.085Z,2.83
2023-02-24T02:05:31.769Z,3.20
2023-02-24T02:08:00.487Z,2.95
2023-02-24T02:10:28.997Z,2.72
2023-02-24T02:12:58.176Z,2.80
2023-02-24T02:15:26.007Z,2.67
2023-02-24T02:18:02.605Z,2.45
2023-02-24T02:21:09.821Z,2.42
2023-02-24T02:23:55.077Z,2.67
2023-02-24T02:26:55.135Z,2.80
2023-02-24T02:29:45.584Z,2.92
2023-02-24T02:32:42.069Z,2.85
2023-02-24T02:35:13.981Z,2.92
2023-02-24T02:37:48.697Z,2.83
2023-02-24T02:40:23.223Z,2.80
2023-02-24T02:42:56.889Z,2.97
2023-02-24T02:45:29.090Z,2.95
2023-02-24T02:48:01.011Z,2.67
2023-02-24T02:50:35.853Z,2.88
2023-02-24T02:53:05.495Z,2.75
2023-02-24T02:55:37.487Z,2.50
2023-02-24T02:58:09.157Z,2.72
2023-02-24T03:00:42.109Z,2.97
2023-02-24T03:03:12.642Z,2.67
2023-02-24T03:05:46.940Z,2.88
2023-02-24T03:08:16.595Z,2.55
2023-02-24T03:10:50.589Z,2.83
2023-02-24T03:13:20.357Z,2.75
2023-02-24T03:15:48.452Z,3.13
2023-02-24T03:18:19.272Z,2.72
2023-02-24T03:20:52.768Z,2.57
2023-02-24T03:23:25.452Z,2.70
2023-02-24T03:25:58.630Z,2.60
2023-02-24T03:28:34.064Z,2.70
2023-02-24T03:31:05.599Z,3.00
2023-02-24T03:33:36.506Z,2.70
2023-02-24T03:36:07.091Z,2.60
2023-02-24T03:38:38.307Z,2.60
2023-02-24T03:41:11.166Z,2.70
2023-02-24T03:43:41.986Z,2.93
2023-02-24T03:46:10.017Z,2.60
2023-02-24T03:48:47.652Z,2.10
2023-02-24T03:51:20.027Z,2.75
2023-02-24T03:53:58.137Z,2.57
2023-02-24T03:56:30.399Z,2.25
2023-02-24T03:59:12.760Z,2.42
2023-02-24T04:01:46.731Z,2.17
2023-02-24T04:04:20.123Z,2.30
2023-02-24T04:06:56.091Z,1.77
2023-02-24T04:09:29.616Z,1.90
2023-02-24T04:12:00.012Z,2.03
2023-02-24T04:14:31.384Z,2.03
2023-02-24T04:17:02.932Z,2.10
2023-02-24T04:19:33.217Z,1.88
2023-02-24T04:22:03.940Z,2.30
2023-02-24T04:24:32.094Z,1.90
2023-02-24T04:27:02.359Z,1.80
2023-02-24T04:29:35.440Z,1.77
2023-02-24T04:32:07.164Z,1.80
2023-02-24T04:34:35.153Z,1.90
2023-02-24T04:37:04.211Z,1.63
2023-02-24T04:39:33.557Z,2.00
2023-02-24T04:42:01.764Z,1.83
2023-02-24T04:44:29.478Z,1.98
2023-02-24T04:46:57.153Z,2.30
2023-02-24T04:49:24.889Z,2.17
2023-02-24T04:51:52.591Z,1.70
2023-02-24T04:54:24.307Z,1.75
2023-02-24T04:56:52.901Z,2.10
2023-02-24T04:59:21.559Z,1.70
2023-02-24T05:01:51.671Z,2.00
2023-02-24T05:04:19.848Z,2.10
2023-02-24T05:06:47.864Z,1.90
2023-02-24T05:09:18.158Z,2.00
2023-02-24T05:11:49.131Z,1.73
2023-02-24T05:14:18.441Z,1.83
2023-02-24T05:16:47.214Z,2.00
2023-02-24T05:19:36.977Z,1.85
2023-02-24T05:22:07.000Z,1.77
2023-02-24T05:24:35.311Z,2.17
2023-02-24T05:27:04.558Z,2.13
2023-02-24T05:29:34.967Z,1.70
2023-02-24T05:32:04.367Z,2.17
2023-02-24T05:34:34.042Z,1.75
2023-02-24T05:37:04.441Z,1.92
2023-02-24T05:39:32.877Z,1.85
2023-02-24T05:42:06.122Z,2.17
2023-02-24T05:44:36.500Z,2.05
2023-02-24T05:47:05.740Z,1.92
2023-02-24T05:49:34.806Z,1.73
2023-02-24T05:52:07.795Z,1.63
2023-02-24T05:54:37.776Z,2.00
2023-02-24T05:57:08.936Z,1.73
2023-02-24T05:59:38.600Z,1.98
2023-02-24T06:02:09.609Z,1.70
2023-02-24T06:04:45.803Z,1.70
2023-02-24T06:07:19.063Z,1.75
2023-02-24T06:09:50.151Z,2.00
2023-02-24T06:12:18.828Z,1.90
2023-02-24T06:14:48.344Z,2.28
2023-02-24T06:17:18.692Z,2.40
2023-02-24T06:19:48.009Z,2.40
2023-02-24T06:22:16.892Z,3.05
2023-02-24T06:24:45.407Z,2.67
2023-02-24T06:27:17.656Z,1.90
2023-02-24T06:29:49.918Z,2.20
2023-02-24T06:32:17.932Z,1.85
2023-02-24T06:34:45.758Z,2.10
2023-02-24T06:37:15.243Z,1.85
2023-02-24T06:39:43.199Z,1.80
2023-02-24T06:42:12.191Z,1.70
2023-02-24T06:44:42.029Z,2.38
2023-02-24T06:47:14.146Z,2.00
2023-02-24T06:49:42.657Z,2.10
2023-02-24T06:52:10.976Z,2.00
2023-02-24T06:54:38.671Z,1.73
2023-02-24T06:57:08.724Z,2.22
2023-02-24T06:59:36.432Z,1.77
2023-02-24T07:02:04.185Z,2.00
2023-02-24T07:04:43.620Z,2.17
2023-02-24T07:07:14.308Z,1.80
2023-02-24T07:09:44.016Z,1.83
2023-02-24T07:12:12.529Z,2.17
2023-02-24T07:14:40.977Z,2.05
2023-02-24T07:17:08.857Z,2.20
2023-02-24T07:19:38.220Z,1.92
2023-02-24T07:22:05.956Z,2.30
2023-02-24T07:24:36.571Z,1.92
2023-02-24T07:27:06.180Z,2.03
2023-02-24T07:29:35.417Z,2.25
2023-02-24T07:32:05.748Z,1.90
2023-02-24T07:34:34.236Z,2.10
2023-02-24T07:37:07.971Z,2.63
2023-02-24T07:39:37.493Z,2.22
2023-02-24T07:42:06.347Z,2.00
2023-02-24T07:44:34.236Z,2.35
2023-02-24T07:47:07.628Z,2.03
2023-02-24T07:49:36.201Z,2.50
2023-02-24T07:52:08.127Z,1.95
2023-02-24T07:54:36.187Z,2.35
2023-02-24T07:57:03.957Z,2.35
2023-02-24T07:59:33.368Z,2.45
2023-02-24T08:02:04.824Z,2.67
2023-02-24T08:04:33.928Z,2.42
2023-02-24T08:07:03.381Z,2.70
2023-02-24T08:10:03.507Z,2.88
2023-02-24T08:12:31.225Z,3.20
2023-02-24T08:15:00.263Z,3.15
2023-02-24T08:17:28.629Z,2.53
2023-02-24T08:20:17.787Z,3.47
2023-02-24T08:22:52.036Z,3.13
2023-02-24T08:25:23.156Z,2.88
2023-02-24T08:28:12.261Z,3.13
2023-02-24T08:30:45.354Z,3.15
2023-02-24T08:33:17.517Z,3.03
2023-02-24T08:35:45.621Z,2.95
2023-02-24T08:38:16.259Z,3.30
2023-02-24T08:40:54.879Z,3.25
2023-02-24T08:43:33.068Z,3.60
2023-02-24T08:46:04.385Z,3.60
2023-02-24T08:48:37.411Z,3.42
2023-02-24T08:51:10.967Z,3.25
2023-02-24T08:53:40.574Z,3.72
2023-02-24T08:56:11.635Z,3.20
2023-02-24T08:58:47.122Z,2.95
2023-02-24T09:01:24.282Z,3.60
2023-02-24T09:03:54.725Z,3.63
2023-02-24T09:06:26.353Z,3.60
2023-02-24T09:09:17.122Z,3.97
2023-02-24T09:11:46.911Z,3.90
2023-02-24T09:14:26.589Z,3.67
2023-02-24T09:17:06.932Z,3.63
2023-02-24T09:20:02.976Z,3.78
2023-02-24T09:22:31.898Z,3.83
2023-02-24T09:25:21.315Z,3.75
2023-02-24T09:27:56.385Z,3.75
2023-02-24T09:30:36.775Z,3.95
2023-02-24T09:33:17.626Z,3.97
2023-02-24T09:35:51.123Z,3.97
2023-02-24T09:38:20.397Z,3.50
2023-02-24T09:40:52.299Z,3.50
2023-02-24T09:43:24.513Z,3.50
2023-02-24T09:45:58.399Z,3.55
2023-02-24T09:48:43.559Z,3.28
2023-02-24T09:51:21.628Z,3.70
2023-02-24T09:53:53.797Z,4.18
2023-02-24T09:56:28.575Z,3.35
2023-02-24T09:59:10.272Z,3.35
2023-02-24T10:01:43.753Z,3.92
2023-02-24T10:04:49.190Z,3.47
2023-02-24T10:07:18.690Z,3.80
2023-02-24T10:09:51.142Z,3.47
2023-02-24T10:12:24.060Z,3.47
2023-02-24T10:15:16.888Z,3.80
2023-02-24T10:17:47.334Z,3.58
2023-02-24T10:20:30.940Z,3.90
2023-02-24T10:23:01.924Z,3.70
2023-02-24T10:25:43.578Z,4.10
2023-02-24T10:28:23.013Z,3.92
2023-02-24T10:31:04.015Z,3.83
2023-02-24T10:33:38.881Z,3.95
2023-02-24T10:36:09.313Z,4.53
2023-02-24T10:38:38.087Z,4.00
2023-02-24T10:41:07.175Z,3.78
2023-02-24T10:43:45.446Z,4.20
2023-02-24T10:46:41.150Z,4.03
2023-02-24T10:49:16.510Z,4.10
2023-02-24T10:51:49.239Z,4.43
2023-02-24T10:54:34.421Z,4.70
2023-02-24T10:57:15.886Z,4.70
2023-02-24T11:00:19.553Z,4.50
2023-02-24T11:03:10.468Z,3.95
2023-02-24T11:05:44.383Z,4.83
2023-02-24T11:08:36.359Z,4.97
2023-02-24T11:11:20.370Z,5.17
2023-02-24T11:14:09.516Z,4.60
2023-02-24T11:17:06.110Z,5.03
2023-02-24T11:19:38.833Z,5.38
2023-02-24T11:22:08.753Z,6.10
2023-02-24T11:24:38.373Z,5.75
2023-02-24T11:27:06.382Z,5.13
2023-02-24T11:29:43.582Z,5.03
2023-02-24T11:32:20.047Z,4.78
2023-02-24T11:34:54.062Z,5.55
2023-02-24T11:37:30.856Z,5.90
2023-02-24T11:40:01.576Z,5.90
2023-02-24T11:42:34.231Z,5.68
2023-02-24T11:45:06.457Z,6.25
2023-02-24T11:47:38.284Z,5.85
2023-02-24T11:50:20.532Z,6.40
2023-02-24T11:52:49.273Z,6.43
2023-02-24T11:55:26.247Z,6.18
2023-02-24T11:57:57.377Z,5.60
2023-02-24T12:00:27.985Z,6.93
2023-02-24T12:03:02.274Z,5.82
2023-02-24T12:05:36.837Z,6.00
2023-02-24T12:08:07.132Z,5.80
2023-02-24T12:10:37.829Z,5.97
2023-02-24T12:13:14.801Z,5.80
2023-02-24T12:15:46.668Z,5.22
2023-02-24T12:18:19.879Z,5.97
2023-02-24T12:20:52.258Z,6.18
2023-02-24T12:23:24.576Z,6.45
2023-02-24T12:26:01.981Z,6.82
2023-02-24T12:28:41.082Z,6.53
2023-02-24T12:31:17.951Z,6.13
2023-02-24T12:33:52.189Z,5.97
2023-02-24T12:36:31.031Z,6.63
2023-02-24T12:39:06.951Z,6.38
2023-02-24T12:41:44.764Z,6.97
2023-02-24T12:44:23.227Z,6.85
2023-02-24T12:46:58.120Z,6.40
2023-02-24T12:49:35.624Z,5.88
2023-02-24T12:52:12.108Z,6.03
2023-02-24T12:54:43.202Z,6.68
2023-02-24T12:57:14.940Z,6.60
2023-02-24T12:59:43.252Z,5.78
2023-02-24T13:02:17.762Z,5.72
2023-02-24T13:04:52.353Z,6.23
2023-02-24T13:07:43.271Z,4.55
2023-02-24T13:10:20.266Z,5.50
2023-02-24T13:12:51.869Z,5.00
2023-02-24T13:15:22.401Z,5.40
2023-02-24T13:17:51.703Z,5.03
2023-02-24T13:20:33.119Z,5.55
2023-02-24T13:23:04.888Z,5.17
2023-02-24T13:25:34.772Z,4.68
2023-02-24T13:28:03.985Z,5.38
2023-02-24T13:30:36.976Z,5.65
2023-02-24T13:33:08.552Z,6.43
2023-02-24T13:35:37.719Z,5.22
2023-02-24T13:38:12.100Z,4.22
2023-02-24T13:40:39.889Z,4.93
2023-02-24T13:43:24.281Z,4.60
2023-02-24T13:45:57.078Z,5.07
2023-02-24T13:48:46.620Z,4.50
2023-02-24T13:51:25.599Z,3.92
2023-02-24T13:54:04.029Z,0.80
2023-02-24T13:56:38.550Z,1.38
2023-02-24T13:59:30.307Z,0.93
2023-02-24T14:01:59.780Z,1.58
2023-02-24T14:04:29.672Z,1.10
2023-02-24T14:07:00.292Z,1.60
2023-02-24T14:09:33.755Z,1.40
2023-02-24T14:12:02.665Z,1.53
2023-02-24T14:14:31.059Z,2.05
2023-02-24T14:16:58.674Z,2.00
2023-02-24T14:19:27.020Z,2.13
2023-02-24T14:21:56.558Z,2.37
2023-02-24T14:24:24.975Z,2.72
2023-02-24T14:26:55.765Z,2.35
2023-02-24T14:29:26.637Z,2.63
2023-02-24T14:31:55.324Z,2.20
2023-02-24T14:34:25.724Z,2.13
2023-02-24T14:36:55.304Z,1.88
2023-02-24T14:39:24.401Z,1.95
2023-02-24T14:44:23.726Z,1.83
2023-02-24T14:46:53.436Z,1.60
2023-02-24T14:49:24.179Z,1.50
2023-02-24T14:51:56.002Z,1.80
2023-02-24T14:54:35.555Z,1.40
2023-02-24T14:57:03.603Z,1.83
2023-02-24T14:59:34.788Z,1.40
2023-02-24T15:02:03.803Z,1.38
2023-02-24T15:04:36.806Z,1.33
2023-02-24T15:07:07.288Z,1.08
2023-02-24T15:09:37.118Z,1.23
2023-02-24T15:12:14.319Z,1.25
2023-02-24T15:14:44.433Z,1.33
2023-02-24T15:17:16.956Z,1.42
2023-02-24T15:19:47.071Z,0.80
2023-02-24T15:22:50.080Z,0.60
2023-02-24T15:25:24.110Z,0.82
2023-02-24T15:27:57.287Z,0.60
2023-02-24T15:30:32.500Z,0.70
2023-02-24T15:33:02.891Z,0.40
2023-02-24T15:35:33.162Z,0.70
2023-02-24T15:38:03.352Z,0.70
2023-02-24T15:40:31.748Z,0.45
2023-02-24T15:43:01.106Z,0.32
2023-02-24T15:45:31.708Z,0.80
2023-02-24T15:48:01.049Z,0.70
2023-02-24T15:50:30.258Z,0.77
2023-02-24T15:52:59.488Z,0.50
2023-02-24T15:55:32.557Z,0.40
2023-02-24T15:58:02.774Z,0.40
2023-02-24T16:00:31.370Z,0.60
2023-02-24T16:02:59.478Z,0.32
2023-02-24T16:05:27.294Z,0.50
2023-02-24T16:07:55.800Z,0.70
2023-02-24T16:10:25.656Z,0.50
2023-02-24T16:12:55.834Z,0.50
2023-02-24T16:15:25.842Z,0.50
2023-02-24T16:17:53.977Z,0.60
2023-02-24T16:20:27.471Z,0.43
2023-02-24T16:24:53.160Z,0.90
2023-02-24T16:27:23.784Z,1.17
2023-02-24T16:29:51.497Z,1.37
2023-02-24T16:32:21.581Z,1.70
2023-02-24T16:34:49.382Z,1.65
2023-02-24T16:37:19.445Z,1.92
2023-02-24T16:39:49.380Z,1.30
2023-02-24T16:42:20.260Z,1.55
2023-02-24T16:44:50.085Z,2.58
2023-02-24T16:47:19.790Z,2.60
2023-02-24T16:52:02.419Z,1.20
2023-02-24T16:54:30.045Z,0.85
2023-02-24T16:56:58.433Z,0.90
2023-02-24T16:59:26.756Z,0.73
2023-02-24T17:01:54.798Z,1.05
2023-02-24T17:04:24.818Z,1.42
2023-02-24T17:08:31.783Z,1.65
2023-02-24T17:10:59.484Z,3.38
2023-02-24T17:13:27.155Z,4.57
2023-02-24T17:15:57.226Z,2.83
2023-02-24T17:18:25.885Z,1.85
2023-02-24T17:20:54.094Z,2.20
2023-02-24T17:23:21.963Z,1.67
2023-02-24T17:25:53.110Z,2.47
2023-02-24T17:28:21.174Z,1.73
2023-02-24T17:30:49.004Z,2.97
2023-02-24T17:33:16.797Z,2.28
2023-02-24T17:35:46.932Z,2.05
2023-02-24T17:38:14.896Z,2.17
2023-02-24T17:40:43.158Z,2.38
2023-02-24T17:43:12.679Z,2.90
2023-02-24T17:45:44.342Z,2.03
2023-02-24T17:48:12.771Z,2.13
2023-02-24T17:50:42.489Z,1.53
2023-02-24T17:53:10.218Z,2.15
2023-02-24T17:55:38.011Z,1.35
2023-02-24T17:58:05.808Z,2.20
2023-02-24T18:00:34.902Z,2.03
2023-02-24T18:03:03.623Z,2.35
2023-02-24T18:05:31.444Z,1.88
2023-02-24T18:07:59.292Z,2.30
2023-02-24T18:10:27.305Z,2.20
2023-02-24T18:12:55.067Z,2.38
2023-02-24T18:15:22.862Z,2.35
2023-02-24T18:17:51.921Z,2.20
2023-02-24T18:20:19.964Z,2.22
2023-02-24T18:22:47.584Z,2.35
2023-02-24T18:25:15.307Z,1.90
2023-02-24T18:27:43.062Z,2.30
2023-02-24T18:30:13.042Z,2.65
2023-02-24T18:32:44.448Z,3.10
2023-02-24T18:35:14.333Z,3.03
2023-02-24T18:37:41.978Z,3.55
2023-02-24T18:40:11.111Z,3.72
2023-02-24T18:42:38.861Z,3.70
2023-02-24T18:45:07.226Z,3.22
2023-02-24T18:47:34.967Z,2.70
2023-02-24T18:50:02.805Z,2.88
2023-02-24T18:52:31.843Z,3.67
2023-02-24T18:54:59.545Z,2.70
2023-02-24T18:57:27.315Z,3.70
2023-02-24T18:59:54.956Z,2.85
2023-02-24T19:02:22.725Z,2.70
2023-02-24T19:04:50.457Z,2.88
2023-02-24T19:07:18.150Z,2.72
2023-02-24T19:09:49.608Z,2.55
2023-02-24T19:12:19.207Z,2.63
2023-02-24T19:14:46.942Z,2.70
2023-02-24T19:17:14.656Z,3.33
2023-02-24T19:19:43.481Z,3.20
2023-02-24T19:22:11.181Z,3.17
2023-02-24T19:24:38.865Z,3.70
2023-02-24T19:27:08.750Z,4.37
2023-02-24T19:29:36.771Z,3.03
2023-02-24T19:32:04.537Z,3.30
2023-02-24T19:34:32.340Z,3.63
2023-02-24T19:37:00.052Z,3.53
2023-02-24T19:39:27.750Z,3.60
2023-02-24T19:41:57.518Z,4.07
2023-02-24T19:44:26.591Z,4.18
2023-02-24T19:46:54.372Z,3.47
2023-02-24T19:49:22.036Z,2.88
2023-02-24T19:51:49.753Z,2.75
2023-02-24T19:54:17.705Z,3.00
2023-02-24T19:56:45.401Z,2.58
2023-02-24T19:59:13.099Z,2.13
2023-02-24T20:01:42.649Z,2.33
2023-02-24T20:04:10.516Z,2.75
2023-02-24T20:06:40.707Z,3.33
2023-02-24T20:09:09.956Z,2.90
2023-02-24T20:11:38.082Z,2.97
2023-02-24T20:14:06.214Z,3.95
2023-02-24T20:16:34.836Z,3.53
2023-02-24T20:19:06.049Z,3.08
2023-02-24T20:21:34.886Z,4.55
2023-02-24T20:24:03.231Z,3.65
2023-02-24T20:26:30.975Z,4.07
2023-02-24T20:28:58.871Z,3.85
2023-02-24T20:31:26.912Z,3.65
2023-02-24T20:33:54.669Z,4.10
2023-02-24T20:36:27.018Z,3.97
2023-02-24T20:38:56.630Z,3.78
2023-02-24T20:41:24.328Z,3.65
2023-02-24T20:43:52.072Z,3.10
2023-02-24T20:46:24.041Z,3.50
2023-02-24T20:48:52.332Z,2.78
2023-02-24T20:51:20.097Z,2.80
2023-02-24T20:53:57.296Z,3.17
2023-02-24T20:56:25.924Z,3.03
2023-02-24T20:58:59.813Z,2.38
2023-02-24T21:01:28.415Z,2.85
2023-02-24T21:03:56.296Z,3.72
2023-02-24T21:06:24.499Z,3.20
2023-02-24T21:08:54.135Z,2.25
2023-02-24T21:11:23.064Z,2.40
2023-02-24T21:13:51.929Z,2.65
2023-02-24T21:16:21.007Z,2.72
2023-02-24T21:18:50.546Z,2.83
2023-02-24T21:21:19.937Z,3.03
2023-02-24T21:23:48.413Z,3.20
2023-02-24T21:26:17.801Z,2.20
2023-02-24T21:28:46.538Z,2.58
2023-02-24T21:31:16.704Z,2.63
2023-02-24T21:33:44.650Z,1.85
2023-02-24T21:36:14.343Z,2.13
2023-02-24T21:38:42.352Z,2.03
2023-02-24T21:41:13.491Z,2.10
2023-02-24T21:43:42.796Z,1.60
2023-02-24T21:46:11.371Z,2.15
2023-02-24T21:48:40.591Z,1.77
2023-02-24T21:51:10.484Z,1.63
2023-02-24T21:53:40.782Z,1.67
2023-02-24T21:56:11.037Z,1.92
2023-02-24T21:58:40.177Z,1.50
2023-02-24T22:01:12.192Z,1.80
2023-02-24T22:03:40.088Z,2.20
2023-02-24T22:06:10.226Z,1.73
2023-02-24T22:08:43.068Z,2.22
2023-02-24T22:11:11.650Z,2.25
2023-02-24T22:13:39.394Z,2.50
2023-02-24T22:16:08.569Z,1.95
2023-02-24T22:18:37.727Z,1.93
2023-02-24T22:21:09.167Z,2.08
2023-02-24T22:23:36.857Z,2.58
2023-02-24T22:26:05.822Z,2.28
2023-02-24T22:28:34.846Z,2.55
2023-02-24T22:31:03.002Z,2.15
2023-02-24T22:33:31.887Z,2.33
2023-02-24T22:36:03.664Z,1.90
2023-02-24T22:38:32.557Z,2.63
2023-02-24T22:41:01.546Z,1.75
2023-02-24T22:43:29.714Z,1.80
2023-02-24T22:45:59.039Z,2.10
2023-02-24T22:48:26.789Z,2.40
2023-02-24T22:50:55.659Z,2.53
2023-02-24T22:53:25.464Z,2.00
2023-02-24T22:55:53.140Z,2.30
2023-02-24T22:58:21.963Z,2.70
2023-02-24T23:00:49.718Z,2.60
2023-02-24T23:03:19.637Z,2.17
2023-02-24T23:05:55.537Z,1.95
2023-02-24T23:08:24.852Z,2.00
2023-02-24T23:10:52.673Z,2.10
2023-02-24T23:13:20.939Z,2.33
2023-02-24T23:15:48.810Z,2.03
2023-02-24T23:18:16.840Z,2.40
2023-02-24T23:20:45.615Z,1.77
2023-02-24T23:23:13.367Z,2.00
2023-02-24T23:25:44.751Z,2.03
2023-02-24T23:28:12.411Z,1.90
2023-02-24T23:30:42.132Z,1.60
2023-02-24T23:33:11.033Z,1.83
2023-02-24T23:35:39.542Z,1.70
2023-02-24T23:38:07.618Z,1.90
2023-02-24T23:40:48.062Z,1.63
2023-02-24T23:43:18.901Z,2.20
2023-02-24T23:45:46.734Z,2.20
2023-02-24T23:48:15.658Z,2.42
2023-02-24T23:50:45.905Z,2.30
2023-02-24T23:53:13.609Z,2.63
2023-02-24T23:55:41.592Z,2.30
2023-02-24T23:58:09.635Z,2.27
